createdAt,value
2022-07-27T00:01:18.334Z,100.00
2022-07-27T00:12:28.506Z,100.00
2022-07-27T00:15:40.985Z,100.00
2022-07-27T00:22:33.234Z,100.00
2022-07-27T00:25:45.148Z,100.00
2022-07-27T00:28:57.116Z,100.00
2022-07-27T00:32:12.592Z,100.00
2022-07-27T00:35:23.367Z,100.00
2022-07-27T00:38:35.167Z,100.00
2022-07-27T00:41:46.903Z,100.00
2022-07-27T00:44:58.937Z,100.00
2022-07-27T00:48:12.163Z,100.00
2022-07-27T00:51:25.968Z,100.00
2022-07-27T00:54:37.773Z,100.00
2022-07-27T00:57:58.525Z,100.00
2022-07-27T01:01:04.276Z,100.00
2022-07-27T01:04:15.930Z,100.00
2022-07-27T01:07:28.297Z,100.00
2022-07-27T01:10:41.764Z,100.00
2022-07-27T01:13:53.980Z,100.00
2022-07-27T01:17:05.824Z,100.00
2022-07-27T01:20:18.943Z,100.00
2022-07-27T01:23:32.568Z,100.00
2022-07-27T01:26:45.417Z,100.00
2022-07-27T01:29:58.094Z,100.00
2022-07-27T01:33:13.258Z,100.00
2022-07-27T01:36:25.329Z,100.00
2022-07-27T01:39:41.747Z,100.00
2022-07-27T01:42:56.957Z,100.00
2022-07-27T01:46:09.290Z,100.00
2022-07-27T01:49:21.108Z,100.00
2022-07-27T01:52:33.132Z,100.00
2022-07-27T01:55:45.156Z,100.00
2022-07-27T01:58:56.886Z,100.00
2022-07-27T02:02:08.547Z,100.00
2022-07-27T02:05:20.817Z,100.00
2022-07-27T02:08:32.864Z,100.00
2022-07-27T02:11:59.185Z,100.00
2022-07-27T02:15:15.780Z,100.00
2022-07-27T02:18:35.807Z,100.00
2022-07-27T02:21:42.172Z,100.00
2022-07-27T02:24:54.019Z,100.00
2022-07-27T02:28:05.761Z,100.00
2022-07-27T02:31:17.310Z,100.00
2022-07-27T02:34:29.100Z,100.00
2022-07-27T02:37:40.951Z,100.00
2022-07-27T02:40:52.919Z,100.00
2022-07-27T02:44:07.687Z,100.00
2022-07-27T02:47:19.790Z,100.00
2022-07-27T02:50:31.898Z,100.00
2022-07-27T02:53:43.739Z,100.00
2022-07-27T02:56:56.276Z,100.00
2022-07-27T03:00:08.696Z,100.00
2022-07-27T03:03:23.388Z,100.00
2022-07-27T03:06:37.345Z,100.00
2022-07-27T03:09:52.492Z,100.00
2022-07-27T03:13:03.227Z,100.00
2022-07-27T03:16:15.315Z,100.00
2022-07-27T03:19:30.298Z,100.00
2022-07-27T03:22:42.518Z,100.00
2022-07-27T03:25:54.277Z,100.00
2022-07-27T03:29:06.144Z,100.00
2022-07-27T03:32:18.046Z,100.00
2022-07-27T03:35:30.472Z,100.00
2022-07-27T03:38:42.563Z,100.00
2022-07-27T03:41:54.226Z,100.00
2022-07-27T03:45:05.942Z,100.00
2022-07-27T03:48:17.643Z,100.00
2022-07-27T03:51:29.170Z,100.00
2022-07-27T03:54:41.035Z,100.00
2022-07-27T03:57:52.783Z,100.00
2022-07-27T04:01:04.551Z,100.00
2022-07-27T04:04:16.516Z,100.00
2022-07-27T04:07:28.100Z,100.00
2022-07-27T04:10:39.778Z,100.00
2022-07-27T04:13:54.423Z,100.00
2022-07-27T04:17:09.433Z,100.00
2022-07-27T04:20:21.250Z,100.00
2022-07-27T04:23:37.940Z,100.00
2022-07-27T04:26:46.937Z,100.00
2022-07-27T04:29:58.509Z,100.00
2022-07-27T04:33:10.330Z,100.00
2022-07-27T04:36:22.020Z,100.00
2022-07-27T04:39:33.753Z,100.00
2022-07-27T04:42:49.259Z,100.00
2022-07-27T04:45:59.375Z,100.00
2022-07-27T04:49:11.323Z,100.00
2022-07-27T04:52:26.449Z,100.00
2022-07-27T04:55:38.116Z,100.00
2022-07-27T04:58:49.819Z,100.00
2022-07-27T05:02:01.426Z,100.00
2022-07-27T05:05:14.612Z,100.00
2022-07-27T05:08:26.884Z,100.00
2022-07-27T05:11:38.690Z,100.00
2022-07-27T05:14:50.262Z,100.00
2022-07-27T05:18:02.023Z,100.00
2022-07-27T05:21:13.941Z,100.00
2022-07-27T05:24:25.620Z,100.00
2022-07-27T05:27:54.224Z,100.00
2022-07-27T05:30:52.518Z,100.00
2022-07-27T05:34:04.377Z,100.00
2022-07-27T05:37:16.240Z,100.00
2022-07-27T05:40:28.408Z,100.00
2022-07-27T05:43:40.204Z,100.00
2022-07-27T05:46:51.908Z,100.00
2022-07-27T05:50:03.458Z,100.00
2022-07-27T05:53:15.479Z,100.00
2022-07-27T05:56:27.591Z,100.00
2022-07-27T05:59:39.756Z,100.00
2022-07-27T06:02:51.912Z,100.00
2022-07-27T06:06:21.345Z,100.00
2022-07-27T06:09:33.069Z,100.00
2022-07-27T06:12:48.086Z,100.00
2022-07-27T06:16:00.980Z,100.00
2022-07-27T06:19:13.078Z,100.00
2022-07-27T06:22:25.169Z,100.00
2022-07-27T06:25:40.451Z,100.00
2022-07-27T06:28:53.076Z,100.00
2022-07-27T06:32:04.878Z,100.00
2022-07-27T06:35:17.857Z,100.00
2022-07-27T06:38:31.379Z,100.00
2022-07-27T06:41:43.185Z,100.00
2022-07-27T06:44:56.974Z,100.00
2022-07-27T06:48:09.243Z,100.00
2022-07-27T06:51:20.987Z,100.00
2022-07-27T07:01:12.144Z,100.00
2022-07-27T07:04:25.286Z,99.37
2022-07-27T07:07:37.584Z,98.67
2022-07-27T07:10:51.083Z,98.78
2022-07-27T07:14:02.993Z,97.59
2022-07-27T07:17:14.671Z,96.50
2022-07-27T07:20:26.978Z,96.02
2022-07-27T07:23:38.873Z,95.03
2022-07-27T07:26:50.456Z,90.51
2022-07-27T07:30:03.194Z,88.06
2022-07-27T07:33:15.000Z,89.75
2022-07-27T07:36:27.003Z,88.77
2022-07-27T07:39:38.755Z,89.54
2022-07-27T07:43:02.613Z,88.44
2022-07-27T07:46:14.870Z,88.17
2022-07-27T07:49:39.259Z,88.76
2022-07-27T07:52:40.792Z,86.87
2022-07-27T07:55:52.618Z,89.19
2022-07-27T07:59:05.165Z,88.13
2022-07-27T08:02:16.957Z,89.71
2022-07-27T08:05:29.809Z,90.77
2022-07-27T08:08:41.909Z,91.14
2022-07-27T08:11:53.586Z,92.27
2022-07-27T08:15:05.276Z,91.20
2022-07-27T08:18:17.614Z,88.85
2022-07-27T08:21:31.629Z,85.87
2022-07-27T08:24:42.972Z,82.64
2022-07-27T08:27:55.487Z,78.79
2022-07-27T08:31:12.175Z,77.24
2022-07-27T08:34:22.251Z,76.76
2022-07-27T08:37:34.149Z,74.84
2022-07-27T08:40:47.573Z,74.49
2022-07-27T08:44:02.434Z,72.31
2022-07-27T08:47:16.874Z,69.87
2022-07-27T08:50:30.740Z,71.39
2022-07-27T08:53:53.154Z,70.71
2022-07-27T08:56:57.367Z,69.32
2022-07-27T09:00:12.551Z,68.39
2022-07-27T09:03:27.484Z,67.21
2022-07-27T09:06:54.434Z,68.35
2022-07-27T09:10:04.874Z,67.01
2022-07-27T09:13:29.394Z,66.34
2022-07-27T09:17:28.883Z,64.76
2022-07-27T09:20:06.334Z,64.95
2022-07-27T09:23:26.047Z,63.49
2022-07-27T09:26:38.569Z,65.19
2022-07-27T09:29:50.341Z,66.26
2022-07-27T09:33:06.872Z,64.42
2022-07-27T09:36:19.764Z,66.46
2022-07-27T09:39:33.185Z,68.24
2022-07-27T09:45:59.056Z,64.99
2022-07-27T09:49:12.311Z,64.08
2022-07-27T09:52:33.472Z,60.70
2022-07-27T09:55:45.881Z,61.67
2022-07-27T09:59:00.045Z,61.20
2022-07-27T10:02:13.204Z,63.19
2022-07-27T10:05:26.067Z,60.11
2022-07-27T10:08:39.015Z,58.82
2022-07-27T10:11:51.781Z,60.40
2022-07-27T10:15:03.488Z,63.94
2022-07-27T10:18:20.164Z,62.62
2022-07-27T10:21:32.799Z,60.24
2022-07-27T10:24:51.224Z,58.39
2022-07-27T10:28:18.958Z,57.21
2022-07-27T10:31:33.947Z,59.51
2022-07-27T10:34:48.168Z,57.92
2022-07-27T10:38:21.760Z,58.93
2022-07-27T11:20:41.856Z,54.05
2022-07-27T11:32:50.806Z,53.91
2022-07-27T11:36:08.034Z,52.15
2022-07-27T11:42:48.917Z,55.41
2022-07-27T11:46:00.748Z,54.09
2022-07-27T11:49:16.218Z,57.54
2022-07-27T11:52:27.915Z,56.25
2022-07-27T11:55:39.744Z,54.84
2022-07-27T11:59:17.596Z,55.88
2022-07-27T12:02:29.754Z,60.13
2022-07-27T12:05:41.633Z,57.72
2022-07-27T12:08:53.496Z,56.80
2022-07-27T12:12:10.080Z,54.25
2022-07-27T12:18:49.898Z,56.37
2022-07-27T12:22:02.495Z,55.18
2022-07-27T12:25:29.963Z,54.87
2022-07-27T12:28:42.450Z,54.10
2022-07-27T12:31:58.697Z,55.00
2022-07-27T12:35:32.813Z,55.00
2022-07-27T12:38:48.742Z,55.36
2022-07-27T12:42:12.761Z,56.88
2022-07-27T12:45:27.751Z,55.56
2022-07-27T12:48:45.767Z,58.08
2022-07-27T12:51:57.960Z,58.14
2022-07-27T12:55:15.532Z,56.88
2022-07-27T12:58:26.017Z,56.44
2022-07-27T13:01:38.226Z,56.81
2022-07-27T13:04:51.373Z,54.63
2022-07-27T13:08:04.992Z,54.23
2022-07-27T13:11:17.163Z,57.35
2022-07-27T13:14:29.378Z,54.92
2022-07-27T13:17:42.224Z,54.48
2022-07-27T13:20:54.077Z,58.42
2022-07-27T13:24:07.158Z,58.84
2022-07-27T13:27:18.961Z,55.99
2022-07-27T13:30:30.823Z,56.54
2022-07-27T13:33:42.659Z,54.87
2022-07-27T13:36:54.492Z,56.11
2022-07-27T13:40:06.706Z,56.09
2022-07-27T13:43:19.574Z,58.78
2022-07-27T13:46:31.832Z,56.04
2022-07-27T13:49:43.839Z,57.86
2022-07-27T13:52:56.144Z,58.95
2022-07-27T13:56:08.061Z,57.25
2022-07-27T13:59:20.254Z,57.17
2022-07-27T14:02:32.330Z,57.27
2022-07-27T14:05:49.202Z,59.90
2022-07-27T14:08:58.464Z,57.79
2022-07-27T14:12:13.773Z,57.00
2022-07-27T14:15:25.837Z,59.43
2022-07-27T14:18:38.191Z,63.70
2022-07-27T14:21:50.096Z,63.16
2022-07-27T14:25:01.752Z,61.21
2022-07-27T14:28:13.735Z,61.85
2022-07-27T14:31:25.523Z,60.00
2022-07-27T14:34:37.638Z,61.42
2022-07-27T14:37:49.304Z,63.68
2022-07-27T14:41:01.940Z,63.02
2022-07-27T14:44:14.185Z,59.29
2022-07-27T14:47:28.052Z,62.25
2022-07-27T14:50:39.818Z,62.68
2022-07-27T14:53:51.832Z,65.50
2022-07-27T14:57:06.410Z,60.82
2022-07-27T15:00:22.103Z,65.54
2022-07-27T15:03:33.768Z,61.40
2022-07-27T15:06:57.316Z,66.31
2022-07-27T15:19:39.307Z,68.40
2022-07-27T15:31:26.245Z,63.14
2022-07-27T15:43:40.332Z,62.94
2022-07-27T16:23:01.872Z,66.40
2022-07-27T16:29:21.321Z,63.72
2022-07-27T16:35:41.062Z,59.34
2022-07-27T16:38:57.210Z,63.50
2022-07-27T16:42:12.563Z,62.96
2022-07-27T16:45:24.148Z,62.29
2022-07-27T16:48:41.801Z,61.41
2022-07-27T16:51:57.129Z,62.10
2022-07-27T16:55:13.073Z,63.46
2022-07-27T16:58:25.724Z,59.54
2022-07-27T17:01:37.681Z,59.56
2022-07-27T17:04:49.563Z,61.43
2022-07-27T17:08:01.311Z,60.72
2022-07-27T17:11:14.357Z,64.21
2022-07-27T17:14:26.410Z,64.25
2022-07-27T17:17:38.741Z,62.62
2022-07-27T17:20:50.566Z,64.24
2022-07-27T17:24:04.598Z,64.29
2022-07-27T17:27:16.558Z,66.84
2022-07-27T17:30:28.465Z,65.56
2022-07-27T17:33:40.777Z,63.50
2022-07-27T17:36:53.374Z,63.82
2022-07-27T17:40:05.014Z,64.23
2022-07-27T17:43:17.226Z,64.58
2022-07-27T17:46:32.351Z,64.33
2022-07-27T17:49:46.006Z,65.68
2022-07-27T17:52:59.513Z,67.85
2022-07-27T17:59:40.093Z,68.09
2022-07-27T18:02:52.509Z,67.51
2022-07-27T18:06:07.007Z,68.70
2022-07-27T18:09:19.204Z,69.40
2022-07-27T18:12:35.731Z,70.00
2022-07-27T18:15:58.110Z,72.06
2022-07-27T18:19:14.454Z,75.21
2022-07-27T18:22:33.096Z,75.38
2022-07-27T18:25:45.000Z,72.98
2022-07-27T18:32:04.188Z,73.83
2022-07-27T18:35:18.381Z,70.78
2022-07-27T19:21:04.787Z,74.39
2022-07-27T19:31:24.941Z,75.79
2022-07-27T19:34:36.990Z,76.79
2022-07-27T20:25:20.997Z,80.68
2022-07-27T21:56:50.580Z,85.11
2022-07-27T22:06:08.581Z,85.50
2022-07-27T23:09:05.613Z,84.38
2022-07-27T23:18:19.578Z,81.91
2022-07-27T23:21:31.343Z,82.28
2022-07-27T23:24:44.355Z,80.72
2022-07-27T23:27:57.106Z,79.59
2022-07-27T23:31:08.945Z,80.41
2022-07-27T23:34:20.961Z,80.85
2022-07-27T23:37:33.192Z,79.73
2022-07-27T23:40:44.969Z,78.96
2022-07-27T23:43:57.042Z,80.27
2022-07-27T23:47:08.994Z,80.25
2022-07-27T23:50:22.972Z,79.87
2022-07-27T23:53:34.773Z,80.41
2022-07-27T23:56:46.431Z,80.20
2022-07-27T23:59:58.323Z,80.05
